Time;durP1;ratioP1;P1;durP2;ratioP2;P2;SDS_P1;SDS_P2;PMS_P1;PMS_P2;Temp;Humidity;BMP_temperature;BMP_pressure;BME280_temperature;BME280_humidity;BME280_pressure;Samples;Min_cycle;Max_cycle;Signal;HPM_P1;HPM_P2
2022/09/03 00:00:52;;;;;;;2.50;0.63;;;;;;;16.10;43.14;100237.78;10160413;29;20076;-78
2022/09/03 00:06:07;;;;;;;2.58;0.70;;;;;;;16.07;43.59;100235.41;10172131;29;20133;-78
2022/09/03 00:11:16;;;;;;;0.65;0.50;;;;;;;16.01;43.51;100235.19;10177507;29;20092;-78
2022/09/03 00:16:23;;;;;;;5.13;0.90;;;;;;;15.96;43.60;100224.84;10149379;29;20560;-77
2022/09/03 00:21:37;;;;;;;3.60;0.60;;;;;;;15.86;43.95;100219.56;10159260;29;20710;-77
2022/09/03 00:26:45;;;;;;;1.92;0.60;;;;;;;15.82;44.06;100215.47;10154261;29;20072;-79
2022/09/03 00:31:51;;;;;;;4.20;1.25;;;;;;;15.75;44.28;100224.44;10136654;29;20064;-78
2022/09/03 00:36:55;;;;;;;2.35;0.60;;;;;;;15.72;44.20;100227.47;10156126;29;20531;-77
2022/09/03 00:42:10;;;;;;;2.67;1.10;;;;;;;15.66;44.46;100232.50;10124145;29;20211;-79
2022/09/03 00:47:22;;;;;;;1.80;0.57;;;;;;;15.62;44.30;100214.03;10152976;29;20123;-78
2022/09/03 00:52:43;;;;;;;2.40;0.60;;;;;;;15.52;44.83;100222.25;10154829;29;21370;-79
2022/09/03 00:57:57;;;;;;;2.30;0.80;;;;;;;15.43;44.95;100217.81;10162460;29;20122;-77
2022/09/03 01:03:06;;;;;;;2.63;0.70;;;;;;;15.44;45.20;100208.66;10147086;29;20169;-78
2022/09/03 01:08:23;;;;;;;3.47;0.70;;;;;;;15.37;44.99;100207.63;10158880;29;20078;-77
2022/09/03 01:13:34;;;;;;;1.02;0.60;;;;;;;15.33;45.52;100214.31;10152405;29;20047;-78
2022/09/03 01:18:44;;;;;;;4.57;0.60;;;;;;;15.27;45.61;100205.00;10166550;29;20099;-78
2022/09/03 01:24:30;;;;;;;2.80;0.60;;;;;;;15.24;45.64;100210.72;10150225;29;20707;-78
2022/09/03 01:29:39;;;;;;;2.78;0.70;;;;;;;15.20;45.87;100215.63;10150091;29;20079;-78
2022/09/03 01:34:54;;;;;;;2.05;0.88;;;;;;;15.14;46.07;100224.38;10158897;29;20168;-78
2022/09/03 01:40:07;;;;;;;1.67;0.47;;;;;;;15.11;46.24;100223.81;10152036;29;20632;-78
2022/09/03 01:45:27;;;;;;;1.02;0.50;;;;;;;15.01;46.51;100227.47;10161544;29;20170;-78
2022/09/03 01:50:42;;;;;;;1.55;0.40;;;;;;;14.99;46.39;100223.22;10164197;29;20054;-78
2022/09/03 01:56:06;;;;;;;2.10;0.70;;;;;;;14.93;46.45;100213.03;10164681;29;20048;-80
2022/09/03 02:01:17;;;;;;;0.63;0.60;;;;;;;14.81;46.86;100218.69;10124981;29;20048;-79
2022/09/03 02:06:20;;;;;;;1.48;0.63;;;;;;;14.85;47.09;100210.28;10170262;29;20119;-79
2022/09/03 02:11:24;;;;;;;4.82;0.80;;;;;;;14.75;47.13;100216.59;10152373;29;20079;-79
2022/09/03 02:16:32;;;;;;;3.28;0.80;;;;;;;14.73;47.24;100220.50;10132672;29;20055;-79
2022/09/03 02:21:39;;;;;;;3.40;0.70;;;;;;;14.66;47.79;100222.94;10165477;29;20162;-79
2022/09/03 02:26:41;;;;;;;1.85;0.63;;;;;;;14.60;47.79;100223.56;10157873;29;20083;-78
2022/09/03 02:31:46;;;;;;;0.75;0.60;;;;;;;14.56;48.04;100222.16;10160002;29;20271;-78
2022/09/03 02:36:49;;;;;;;1.23;0.60;;;;;;;14.58;47.77;100225.56;10166727;29;20066;-78
2022/09/03 02:41:56;;;;;;;3.10;0.77;;;;;;;14.53;48.24;100217.91;10171748;29;20051;-78
2022/09/03 02:47:02;;;;;;;1.60;0.70;;;;;;;14.49;48.26;100213.00;10140831;29;20130;-78
2022/09/03 02:52:08;;;;;;;1.23;0.80;;;;;;;14.44;48.47;100221.56;10158453;29;20063;-79
2022/09/03 02:57:14;;;;;;;2.22;0.90;;;;;;;14.47;48.58;100212.28;10151651;29;20050;-79
2022/09/03 03:02:18;;;;;;;2.03;0.70;;;;;;;14.42;48.57;100226.25;10152691;29;20127;-79
2022/09/03 03:07:21;;;;;;;1.25;0.85;;;;;;;14.37;48.75;100210.47;10167191;29;20142;-78
2022/09/03 03:12:25;;;;;;;1.10;0.68;;;;;;;14.31;48.95;100211.06;10157894;29;20060;-79
2022/09/03 03:17:30;;;;;;;1.17;0.70;;;;;;;14.27;49.30;100200.75;10163373;29;20048;-80
2022/09/03 03:22:33;;;;;;;2.33;1.02;;;;;;;14.18;49.36;100193.53;10159111;29;20063;-78
2022/09/03 03:27:40;;;;;;;2.80;0.85;;;;;;;14.21;49.58;100198.66;10152200;29;20051;-79
2022/09/03 03:32:44;;;;;;;2.10;0.90;;;;;;;14.15;49.61;100205.50;10161693;29;20506;-78
2022/09/03 03:37:47;;;;;;;2.30;0.68;;;;;;;14.22;49.42;100206.59;10171956;29;20157;-78
2022/09/03 03:42:49;;;;;;;0.80;0.80;;;;;;;14.15;49.94;100213.59;10152651;29;20073;-79
2022/09/03 03:47:57;;;;;;;1.88;0.80;;;;;;;14.16;49.81;100218.84;10154362;29;20136;-79
2022/09/03 03:53:00;;;;;;;1.50;0.60;;;;;;;14.11;49.98;100220.31;10138876;29;20603;-78
2022/09/03 03:58:03;;;;;;;2.58;1.13;;;;;;;14.08;50.25;100210.66;10158540;29;20071;-79
2022/09/03 04:03:07;;;;;;;2.13;1.42;;;;;;;14.02;50.28;100211.28;10161883;29;20105;-77
2022/09/03 04:08:11;;;;;;;4.97;1.20;;;;;;;13.89;50.65;100210.78;10148552;29;20103;-78
2022/09/03 04:13:14;;;;;;;1.67;0.90;;;;;;;13.93;50.55;100198.66;10150381;29;20075;-77
2022/09/03 04:18:18;;;;;;;1.80;0.93;;;;;;;13.92;50.64;100199.66;10160443;29;20184;-78
2022/09/03 04:23:21;;;;;;;1.92;0.90;;;;;;;13.86;50.92;100205.69;10174427;29;20870;-77
2022/09/03 04:28:24;;;;;;;0.88;0.85;;;;;;;13.81;51.02;100199.88;10143078;29;20104;-77
2022/09/03 04:33:29;;;;;;;2.75;0.90;;;;;;;13.78;51.07;100190.22;10151231;29;20051;-77
2022/09/03 04:38:33;;;;;;;2.08;0.80;;;;;;;13.74;51.34;100187.97;10149820;29;20051;-77
2022/09/03 04:43:36;;;;;;;1.02;0.93;;;;;;;13.72;51.68;100190.84;10156729;29;20056;-77
2022/09/03 04:48:41;;;;;;;1.48;1.25;;;;;;;13.75;51.69;100195.09;10150862;29;20145;-77
2022/09/03 04:53:45;;;;;;;1.63;0.90;;;;;;;13.77;51.44;100193.94;10166371;29;20047;-77
2022/09/03 04:58:49;;;;;;;3.42;0.90;;;;;;;13.75;51.82;100195.94;10139785;29;20143;-77
2022/09/03 05:03:56;;;;;;;1.33;1.20;;;;;;;13.76;51.82;100196.78;10156491;29;20051;-77
2022/09/03 05:09:00;;;;;;;1.50;0.80;;;;;;;13.80;51.79;100195.50;10113904;29;20564;-77
2022/09/03 05:14:04;;;;;;;2.03;1.10;;;;;;;13.89;51.72;100189.19;10147367;29;20702;-78
2022/09/03 05:19:09;;;;;;;3.88;0.80;;;;;;;13.94;51.70;100194.97;10138819;29;21159;-77
2022/09/03 05:24:13;;;;;;;1.67;1.02;;;;;;;14.04;51.70;100195.78;10152282;29;20430;-77
2022/09/03 05:29:18;;;;;;;3.67;1.30;;;;;;;14.05;51.94;100192.06;10155853;29;20532;-77
2022/09/03 05:34:23;;;;;;;2.17;1.70;;;;;;;14.16;51.87;100191.00;10129268;29;20552;-78
2022/09/03 05:39:26;;;;;;;1.13;0.75;;;;;;;14.20;52.01;100197.78;10135410;29;20067;-77
2022/09/03 05:44:29;;;;;;;2.35;0.85;;;;;;;14.47;51.51;100190.66;10166281;29;20066;-76
2022/09/03 05:49:33;;;;;;;4.57;1.20;;;;;;;14.73;50.63;100193.44;10153580;29;20198;-76
2022/09/03 05:54:35;;;;;;;3.80;1.15;;;;;;;14.86;50.41;100193.88;10137409;29;20577;-76
2022/09/03 05:59:39;;;;;;;1.02;0.98;;;;;;;15.04;50.24;100188.44;10154390;29;20754;-76
2022/09/03 06:04:43;;;;;;;1.20;1.00;;;;;;;15.04;50.02;100189.28;10149552;29;20224;-76
2022/09/03 06:09:45;;;;;;;1.30;0.80;;;;;;;15.02;50.07;100194.00;10148207;29;20048;-76
2022/09/03 06:14:48;;;;;;;1.52;0.88;;;;;;;15.11;49.94;100194.06;10143807;29;20131;-76
2022/09/03 06:19:52;;;;;;;2.80;1.02;;;;;;;15.32;49.55;100202.66;10151187;29;20534;-77
2022/09/03 06:24:55;;;;;;;5.20;0.93;;;;;;;15.59;49.51;100201.66;10124038;29;20172;-76
2022/09/03 06:29:58;;;;;;;2.85;1.42;;;;;;;15.50;49.06;100194.53;10141584;29;20095;-77
2022/09/03 06:35:02;;;;;;;3.10;1.13;;;;;;;15.72;48.79;100193.09;10150724;29;20051;-77
2022/09/03 06:40:11;;;;;;;3.42;1.02;;;;;;;15.98;48.59;100197.59;10128048;29;20154;-77
2022/09/03 06:45:15;;;;;;;2.30;1.00;;;;;;;16.02;47.80;100205.25;10153844;29;20102;-76
2022/09/03 06:50:19;;;;;;;2.88;1.17;;;;;;;16.44;47.44;100195.38;10147696;29;20072;-76
2022/09/03 06:55:22;;;;;;;1.27;0.90;;;;;;;16.47;46.53;100200.47;10157841;29;20150;-77
2022/09/03 07:00:26;;;;;;;1.08;0.95;;;;;;;16.95;46.14;100209.63;10155177;29;20167;-76
2022/09/03 07:05:33;;;;;;;1.85;1.08;;;;;;;17.32;45.97;100205.56;10157921;29;21204;-76
2022/09/03 07:10:37;;;;;;;2.00;1.48;;;;;;;17.47;45.01;100214.69;10144957;29;20626;-77
2022/09/03 07:15:40;;;;;;;2.35;1.10;;;;;;;17.64;44.55;100212.78;10159076;29;20106;-77
2022/09/03 07:20:44;;;;;;;3.22;1.20;;;;;;;17.55;44.34;100205.66;10177944;29;20040;-75
2022/09/03 07:25:53;;;;;;;2.13;1.15;;;;;;;17.40;44.65;100197.41;10164368;29;20082;-76
2022/09/03 07:31:01;;;;;;;5.38;1.05;;;;;;;17.46;44.49;100196.69;10166826;29;20423;-76
2022/09/03 07:36:08;;;;;;;2.88;1.00;;;;;;;17.81;43.91;100199.97;10170959;29;20075;-76
2022/09/03 07:41:12;;;;;;;4.82;1.05;;;;;;;18.32;43.80;100184.97;10185497;29;20051;-75
2022/09/03 07:46:28;;;;;;;2.42;1.10;;;;;;;18.80;42.50;100193.81;10164957;29;20055;-75
2022/09/03 07:51:36;;;;;;;1.17;0.95;;;;;;;19.12;42.53;100207.34;10145556;29;20577;-75
2022/09/03 07:56:40;;;;;;;5.55;1.35;;;;;;;19.58;41.76;100204.47;10153886;29;20180;-76
2022/09/03 08:01:42;;;;;;;2.88;1.20;;;;;;;19.21;41.42;100198.03;10162633;29;20146;-75
2022/09/03 08:06:47;;;;;;;2.35;0.90;;;;;;;19.84;41.05;100204.00;10165421;29;20138;-76
2022/09/03 08:11:49;;;;;;;1.33;1.00;;;;;;;20.10;40.71;100196.19;10164195;29;20111;-76
2022/09/03 08:16:52;;;;;;;2.72;0.90;;;;;;;19.95;40.35;100206.25;10146785;29;20099;-75
2022/09/03 08:21:57;;;;;;;1.60;0.90;;;;;;;20.17;40.35;100206.31;10162337;29;20052;-75
2022/09/03 08:27:00;;;;;;;5.03;1.33;;;;;;;20.36;40.40;100204.88;10142199;29;20074;-76
2022/09/03 08:32:04;;;;;;;6.38;1.10;;;;;;;20.67;39.74;100208.13;10148929;29;20047;-75
2022/09/03 08:37:12;;;;;;;3.88;1.23;;;;;;;21.20;38.96;100210.50;10146422;29;20066;-76
2022/09/03 08:42:45;;;;;;;2.92;1.15;;;;;;;21.22;38.32;100206.53;10145792;29;21362;-75
2022/09/03 08:47:55;;;;;;;1.75;1.05;;;;;;;21.41;37.67;100204.16;10148923;29;21580;-75
2022/09/03 08:53:04;;;;;;;1.85;1.00;;;;;;;21.62;37.54;100203.25;10143505;29;20052;-75
2022/09/03 08:58:12;;;;;;;2.50;1.00;;;;;;;22.17;37.26;100195.13;10146247;29;20433;-76
2022/09/03 09:03:44;;;;;;;0.90;0.80;;;;;;;22.50;36.47;100187.88;10148920;29;20537;-76
2022/09/03 09:09:03;;;;;;;1.80;1.27;;;;;;;22.97;36.08;100194.22;10147516;29;20082;-76
2022/09/03 09:14:16;;;;;;;1.23;0.88;;;;;;;23.27;35.11;100193.00;10149430;29;20536;-76
2022/09/03 09:19:35;;;;;;;1.38;1.02;;;;;;;23.34;35.04;100186.47;10126243;29;20533;-77
2022/09/03 09:24:44;;;;;;;2.15;1.02;;;;;;;22.85;35.39;100178.66;10149384;29;20196;-77
2022/09/03 09:29:49;;;;;;;2.03;1.10;;;;;;;22.99;35.67;100167.47;10146899;29;20130;-76
2022/09/03 09:34:54;;;;;;;4.30;1.05;;;;;;;23.24;34.91;100164.13;10123228;29;20044;-77
2022/09/03 09:39:59;;;;;;;3.80;1.85;;;;;;;23.80;34.18;100174.53;10163084;29;20470;-77
2022/09/03 09:45:10;;;;;;;2.97;0.80;;;;;;;24.17;33.36;100158.34;10126661;29;20059;-76
2022/09/03 09:50:19;;;;;;;1.42;1.08;;;;;;;24.37;33.33;100162.88;10164836;29;20088;-77
2022/09/03 09:55:31;;;;;;;1.50;1.02;;;;;;;24.26;33.27;100146.03;10143387;29;20417;-77
2022/09/03 10:00:36;;;;;;;1.70;0.98;;;;;;;24.04;33.44;100156.50;10162024;29;20132;-77
2022/09/03 10:05:39;;;;;;;1.92;0.90;;;;;;;23.69;34.03;100160.63;10145163;29;20573;-77
2022/09/03 10:10:47;;;;;;;1.65;1.00;;;;;;;23.96;33.32;100154.00;10155802;29;20524;-77
2022/09/03 10:15:58;;;;;;;3.38;1.13;;;;;;;24.10;34.19;100149.28;10144464;29;20095;-76
2022/09/03 10:21:06;;;;;;;1.95;1.05;;;;;;;24.72;33.88;100135.84;10158099;29;20052;-76
2022/09/03 10:26:13;;;;;;;3.38;1.23;;;;;;;25.29;32.09;100141.28;10148737;29;20059;-76
2022/09/03 10:31:32;;;;;;;1.75;1.50;;;;;;;25.34;32.32;100131.28;10151984;29;20164;-76
2022/09/03 10:36:43;;;;;;;1.65;1.20;;;;;;;25.81;31.72;100128.00;10149066;29;20061;-76
2022/09/03 10:42:01;;;;;;;0.93;0.93;;;;;;;25.49;31.67;100119.88;10147369;29;20247;-76
2022/09/03 10:47:18;;;;;;;3.55;1.15;;;;;;;26.18;31.23;100115.00;10146093;29;20522;-76
2022/09/03 10:52:28;;;;;;;3.40;1.30;;;;;;;26.27;30.79;100121.03;10169692;29;20433;-76
2022/09/03 10:57:44;;;;;;;1.15;1.00;;;;;;;26.34;30.86;100126.44;10170197;29;20060;-76
2022/09/03 11:03:12;;;;;;;4.60;1.00;;;;;;;26.49;30.71;100113.06;10169254;29;20079;-75
2022/09/03 11:08:22;;;;;;;5.97;1.10;;;;;;;26.68;30.19;100111.91;10147549;29;20055;-75
2022/09/03 11:13:29;;;;;;;0.80;0.80;;;;;;;27.06;29.82;100102.38;10148352;29;20055;-76
2022/09/03 11:18:38;;;;;;;5.63;0.80;;;;;;;27.42;28.73;100114.22;10161396;29;20175;-76
2022/09/03 11:23:45;;;;;;;2.03;0.93;;;;;;;26.33;29.66;100114.59;10154587;29;20406;-76
2022/09/03 11:28:55;;;;;;;3.28;1.00;;;;;;;27.03;29.15;100110.28;10163678;29;20138;-76
2022/09/03 11:34:05;;;;;;;2.15;1.10;;;;;;;27.31;28.64;100104.03;10161076;29;20138;-76
2022/09/03 11:39:17;;;;;;;0.80;0.80;;;;;;;27.36;28.33;100095.88;10152019;29;20067;-76
2022/09/03 11:44:22;;;;;;;3.85;1.05;;;;;;;27.46;28.38;100093.38;10147808;29;20198;-75
2022/09/03 11:49:29;;;;;;;1.10;0.85;;;;;;;27.82;28.10;100094.09;10163530;29;20059;-76
2022/09/03 11:54:42;;;;;;;11.40;1.30;;;;;;;27.58;28.31;100098.84;10163709;29;20903;-76
2022/09/03 11:59:46;;;;;;;3.03;1.02;;;;;;;27.14;28.75;100096.50;10143597;29;20078;-76
2022/09/03 12:05:00;;;;;;;1.20;0.80;;;;;;;28.23;27.80;100095.75;10151314;29;20529;-76
2022/09/03 12:10:34;;;;;;;1.70;1.10;;;;;;;28.32;27.44;100098.09;10151926;29;20278;-76
2022/09/03 12:16:07;;;;;;;2.78;1.02;;;;;;;27.92;28.12;100088.78;10126681;29;20522;-76
2022/09/03 12:21:11;;;;;;;3.08;0.80;;;;;;;28.64;27.37;100088.19;10162560;29;20686;-76
2022/09/03 12:26:16;;;;;;;1.20;1.10;;;;;;;29.24;26.60;100099.63;10154128;29;20044;-76
2022/09/03 12:31:23;;;;;;;2.78;1.52;;;;;;;29.50;26.90;100079.47;10141268;29;20051;-76
2022/09/03 12:36:35;;;;;;;1.77;1.10;;;;;;;30.78;25.32;100080.84;10150669;29;20060;-75
2022/09/03 12:41:39;;;;;;;0.85;0.85;;;;;;;32.91;23.41;100077.38;10155081;29;20052;-75
2022/09/03 12:46:43;;;;;;;1.45;0.70;;;;;;;31.68;23.88;100079.97;10130568;29;20143;-75
2022/09/03 12:51:47;;;;;;;0.82;0.80;;;;;;;31.11;24.89;100067.75;10147828;29;20055;-75
2022/09/03 12:56:58;;;;;;;2.33;0.93;;;;;;;31.88;24.27;100063.38;10142631;29;20408;-75
2022/09/03 13:02:06;;;;;;;2.05;1.13;;;;;;;33.51;22.63;100073.59;10164656;29;20190;-76
2022/09/03 13:07:15;;;;;;;1.35;1.10;;;;;;;28.88;26.34;100068.63;10163550;29;20131;-76
2022/09/03 13:12:23;;;;;;;2.63;0.90;;;;;;;27.59;28.24;100056.38;10164756;29;20091;-75
2022/09/03 13:17:47;;;;;;;4.30;1.17;;;;;;;28.60;26.86;100066.81;10160076;29;20387;-75
2022/09/03 13:23:08;;;;;;;1.95;1.40;;;;;;;26.92;28.83;100071.47;10143360;29;20075;-76
2022/09/03 13:28:26;;;;;;;4.20;1.40;;;;;;;26.76;29.29;100074.06;10143369;29;20079;-76
2022/09/03 13:33:35;;;;;;;1.80;1.10;;;;;;;27.62;28.60;100077.97;10141890;29;21165;-76
2022/09/03 13:38:43;;;;;;;1.17;0.82;;;;;;;29.17;27.29;100069.38;10147516;29;21443;-76
2022/09/03 13:43:52;;;;;;;3.83;0.80;;;;;;;27.94;28.15;100060.91;10156085;29;20103;-75
2022/09/03 13:54:28;;;;;;;2.88;1.80;;;;;;;26.52;29.84;100063.00;10159853;29;20059;-76
2022/09/03 13:59:54;;;;;;;3.72;1.23;;;;;;;26.27;30.34;100058.56;10156116;29;20055;-75
2022/09/03 14:05:07;;;;;;;1.90;0.90;;;;;;;26.14;30.23;100063.38;10160403;29;20055;-75
2022/09/03 14:10:22;;;;;;;5.10;1.30;;;;;;;26.15;30.12;100057.66;10148101;29;20577;-76
2022/09/03 14:15:31;;;;;;;3.75;1.05;;;;;;;26.02;30.17;100066.94;10154206;29;20055;-75
2022/09/03 14:20:44;;;;;;;5.53;1.00;;;;;;;25.56;30.50;100060.16;10153479;29;20084;-76
2022/09/03 14:25:53;;;;;;;0.75;0.70;;;;;;;25.60;30.95;100060.53;10147528;29;20509;-77
2022/09/03 14:31:05;;;;;;;7.38;1.10;;;;;;;25.85;30.92;100050.25;10165324;29;20144;-79
2022/09/03 14:36:20;;;;;;;2.55;1.20;;;;;;;25.41;31.13;100057.78;10160087;29;20517;-78
2022/09/03 14:41:43;;;;;;;2.05;0.90;;;;;;;25.38;30.84;100055.50;10161050;29;20062;-76
2022/09/03 14:47:00;;;;;;;1.17;1.00;;;;;;;25.59;30.66;100047.88;10133249;29;20133;-78
2022/09/03 14:52:22;;;;;;;2.45;0.90;;;;;;;25.84;30.61;100050.50;10141558;29;20106;-78
2022/09/03 14:57:43;;;;;;;2.75;1.30;;;;;;;26.78;29.22;100058.97;10152684;29;20207;-77
2022/09/03 15:03:18;;;;;;;3.42;1.25;;;;;;;26.62;29.48;100046.75;10146747;29;20051;-77
2022/09/03 15:08:37;;;;;;;3.90;1.52;;;;;;;25.94;29.86;100058.19;10143238;29;20107;-77
2022/09/03 15:13:48;;;;;;;3.05;1.10;;;;;;;26.11;29.81;100055.59;10142692;29;20059;-77
2022/09/03 15:19:07;;;;;;;0.80;0.80;;;;;;;26.26;29.29;100056.88;10158110;29;20044;-77
2022/09/03 15:24:24;;;;;;;3.28;0.98;;;;;;;26.97;28.25;100062.47;10158704;29;20478;-78
2022/09/03 15:29:41;;;;;;;1.17;0.90;;;;;;;28.25;27.30;100054.09;10140960;29;20063;-78
2022/09/03 15:35:00;;;;;;;1.70;0.88;;;;;;;28.40;27.29;100054.31;10137989;29;20521;-78
2022/09/03 15:40:10;;;;;;;1.48;0.98;;;;;;;27.98;27.51;100053.88;10153632;29;20062;-77
2022/09/03 15:45:20;;;;;;;1.63;1.05;;;;;;;28.64;26.78;100051.44;10126918;29;20075;-78
2022/09/03 15:50:32;;;;;;;2.58;1.10;;;;;;;28.63;26.97;100052.50;10160178;29;20056;-78
2022/09/03 15:55:40;;;;;;;2.85;1.10;;;;;;;28.28;27.02;100061.88;10133985;29;20059;-78
2022/09/03 16:00:53;;;;;;;2.10;1.15;;;;;;;28.17;26.99;100049.81;10166391;29;20056;-77
2022/09/03 16:06:01;;;;;;;2.30;1.15;;;;;;;27.49;27.63;100046.00;10155884;29;20048;-78
2022/09/03 16:11:13;;;;;;;3.85;1.15;;;;;;;27.40;28.01;100058.50;10160315;29;20554;-77
2022/09/03 16:16:23;;;;;;;1.33;1.23;;;;;;;26.94;28.32;100061.03;10181823;29;20056;-77
2022/09/03 16:21:33;;;;;;;2.47;1.27;;;;;;;27.05;28.26;100061.28;10152992;29;20075;-77
2022/09/03 16:26:43;;;;;;;1.85;1.00;;;;;;;27.26;27.63;100059.78;10153090;29;20134;-77
2022/09/03 16:32:02;;;;;;;2.85;1.17;;;;;;;26.74;28.20;100060.53;10139999;29;20095;-78
2022/09/03 16:37:18;;;;;;;3.53;0.90;;;;;;;26.81;28.33;100065.94;10158582;29;20055;-79
2022/09/03 16:42:31;;;;;;;1.92;1.20;;;;;;;26.46;28.96;100073.06;10138540;29;20060;-78
2022/09/03 16:47:47;;;;;;;1.88;0.80;;;;;;;25.90;29.61;100068.81;10146244;29;20414;-78
2022/09/03 16:53:03;;;;;;;1.50;1.08;;;;;;;25.14;30.63;100078.41;10155188;29;21632;-77
2022/09/03 16:58:18;;;;;;;1.20;0.93;;;;;;;24.73;31.15;100088.06;10135340;29;20060;-78
2022/09/03 17:03:44;;;;;;;6.93;1.17;;;;;;;24.36;31.68;100090.69;10138335;29;20050;-77
2022/09/03 17:08:58;;;;;;;2.35;1.15;;;;;;;23.94;31.90;100094.94;10161625;29;20043;-77
2022/09/03 17:14:22;;;;;;;1.75;1.00;;;;;;;24.18;31.66;100093.31;10173219;29;20052;-77
2022/09/03 17:19:32;;;;;;;4.50;1.23;;;;;;;24.37;31.89;100089.59;10169292;29;20076;-78
2022/09/03 17:24:41;;;;;;;4.40;0.95;;;;;;;24.16;31.99;100092.69;10131394;29;20418;-78
2022/09/03 17:30:02;;;;;;;2.05;1.20;;;;;;;23.92;32.05;100089.69;10150320;29;20051;-76
2022/09/03 17:35:12;;;;;;;1.65;1.17;;;;;;;23.68;32.75;100088.50;10137591;29;20056;-76
2022/09/03 17:40:27;;;;;;;2.17;1.02;;;;;;;23.39;33.21;100098.97;10145044;29;20866;-77
2022/09/03 17:45:41;;;;;;;2.97;2.30;;;;;;;23.02;33.71;100108.69;10126089;29;20055;-76
2022/09/03 17:50:51;;;;;;;2.22;1.83;;;;;;;22.86;33.67;100101.75;10140722;29;21178;-77
2022/09/03 17:55:58;;;;;;;4.00;2.65;;;;;;;22.71;34.53;100112.09;10131515;29;20245;-77
2022/09/03 18:01:15;;;;;;;3.53;1.25;;;;;;;22.59;34.85;100122.81;10143397;29;20052;-77
2022/09/03 18:06:32;;;;;;;1.52;1.15;;;;;;;22.47;35.05;100130.81;10153693;29;20421;-77
2022/09/03 18:11:39;;;;;;;2.50;1.38;;;;;;;22.36;35.58;100136.03;10162713;29;20043;-76
2022/09/03 18:16:49;;;;;;;1.20;1.10;;;;;;;22.23;35.21;100145.91;10137518;29;20052;-77
2022/09/03 20:11:50;;;;;;;3.75;1.58;;;;;;;19.42;38.70;100249.06;10140239;29;20092;-77
2022/09/03 20:17:07;;;;;;;3.40;1.90;;;;;;;19.44;38.83;100256.03;10142115;29;20561;-77
2022/09/03 20:22:22;;;;;;;1.85;1.48;;;;;;;19.33;38.87;100258.34;10140984;29;20126;-77
2022/09/03 20:27:39;;;;;;;3.42;1.73;;;;;;;19.27;39.17;100261.81;10152710;29;20063;-78
2022/09/03 20:32:54;;;;;;;4.03;1.40;;;;;;;19.21;39.41;100271.56;10129769;29;20158;-77
2022/09/03 20:38:08;;;;;;;2.55;1.63;;;;;;;19.11;39.28;100279.97;10135679;29;20052;-77
2022/09/03 20:43:34;;;;;;;2.15;1.70;;;;;;;18.95;39.50;100285.53;10142476;29;20052;-78
2022/09/03 20:48:46;;;;;;;3.97;1.70;;;;;;;18.96;39.57;100289.97;10129864;29;20076;-78
2022/09/03 20:54:08;;;;;;;2.13;1.58;;;;;;;18.86;39.72;100300.22;10141188;29;20044;-78
2022/09/03 20:59:20;;;;;;;4.93;1.90;;;;;;;18.79;40.00;100302.84;10128709;29;20120;-78
2022/09/03 21:04:41;;;;;;;5.32;1.50;;;;;;;18.76;40.21;100305.91;10160206;29;20059;-77
2022/09/03 21:09:55;;;;;;;2.30;1.42;;;;;;;18.65;40.31;100299.00;10161051;29;20083;-79
2022/09/03 21:15:08;;;;;;;2.72;1.65;;;;;;;18.58;40.59;100304.28;10168224;29;20091;-79
2022/09/03 21:20:22;;;;;;;3.42;1.52;;;;;;;18.54;40.80;100304.81;10143829;29;20147;-79
2022/09/03 21:25:29;;;;;;;4.22;1.40;;;;;;;18.48;40.76;100302.81;10153633;29;20789;-78
2022/09/03 21:30:39;;;;;;;4.70;1.20;;;;;;;18.39;41.31;100314.75;10148157;29;20052;-79
2022/09/03 21:35:46;;;;;;;2.53;1.38;;;;;;;18.32;41.38;100304.59;10149941;29;20055;-80
2022/09/03 21:40:55;;;;;;;4.18;1.30;;;;;;;18.21;41.74;100306.84;10144788;29;20044;-78
2022/09/03 21:46:04;;;;;;;1.48;1.33;;;;;;;18.17;41.81;100302.78;10147625;29;20068;-79
2022/09/03 21:51:13;;;;;;;4.35;1.67;;;;;;;18.19;41.94;100317.91;10160714;29;20047;-78
2022/09/03 21:56:42;;;;;;;2.03;1.33;;;;;;;18.16;42.24;100320.97;10171470;29;20088;-79
2022/09/03 22:01:57;;;;;;;2.60;1.40;;;;;;;18.14;42.12;100329.28;10149171;29;20481;-78
2022/09/03 22:07:13;;;;;;;1.80;1.20;;;;;;;18.06;42.25;100320.31;10165528;29;20052;-79
2022/09/03 22:12:20;;;;;;;4.32;1.33;;;;;;;17.98;42.61;100317.63;10162836;29;20505;-80
2022/09/03 22:17:35;;;;;;;2.53;1.55;;;;;;;17.98;42.90;100323.91;10176139;29;20090;-78
2022/09/03 22:22:44;;;;;;;1.98;1.50;;;;;;;17.88;42.84;100318.66;10175489;29;20066;-79
2022/09/03 22:27:59;;;;;;;4.03;1.63;;;;;;;17.83;42.97;100323.75;10170939;29;20083;-78
2022/09/03 22:33:14;;;;;;;1.35;1.20;;;;;;;17.80;43.22;100326.81;10165819;29;20088;-79
2022/09/03 22:38:36;;;;;;;2.55;1.42;;;;;;;17.72;43.15;100315.97;10151076;29;20968;-78
2022/09/03 22:43:42;;;;;;;4.70;1.67;;;;;;;17.71;43.30;100333.28;10169040;29;20058;-79
2022/09/03 22:49:06;;;;;;;2.38;2.03;;;;;;;17.65;43.33;100329.38;10175444;29;20064;-77
2022/09/03 22:54:25;;;;;;;1.88;1.42;;;;;;;17.59;43.57;100335.50;10154901;29;20048;-78
2022/09/03 22:59:35;;;;;;;2.70;1.45;;;;;;;17.59;44.08;100331.94;10154185;29;20052;-79
2022/09/03 23:04:46;;;;;;;2.65;1.33;;;;;;;17.52;44.04;100339.91;10156532;29;20044;-78
2022/09/03 23:09:55;;;;;;;1.90;1.60;;;;;;;17.46;43.96;100344.16;10146918;29;20044;-79
2022/09/03 23:15:01;;;;;;;3.47;1.40;;;;;;;17.38;44.25;100343.31;10169051;29;20147;-79
2022/09/03 23:20:09;;;;;;;2.28;1.35;;;;;;;17.32;44.71;100349.44;10167368;29;20668;-79
2022/09/03 23:25:15;;;;;;;3.33;1.63;;;;;;;17.27;44.53;100357.22;10155486;29;20056;-79
2022/09/03 23:30:17;;;;;;;2.30;1.52;;;;;;;17.19;44.68;100358.06;10173127;29;20075;-77
2022/09/03 23:35:26;;;;;;;2.75;1.50;;;;;;;17.15;44.84;100364.88;10157857;29;20686;-78
2022/09/03 23:40:42;;;;;;;1.95;1.60;;;;;;;17.11;45.01;100368.88;10148443;29;20238;-78
2022/09/03 23:45:54;;;;;;;2.90;1.52;;;;;;;16.93;45.63;100363.59;10142218;29;20143;-80
2022/09/03 23:51:11;;;;;;;4.60;1.80;;;;;;;16.77;45.78;100362.53;10179876;29;20056;-79
2022/09/03 23:56:34;;;;;;;2.70;1.80;;;;;;;16.67;45.76;100358.28;10157521;29;20087;-79
